Bethune, Colorado
Current Conditions -  °F | °C
As of 5:53 AM on Friday 24 Oct 2014 (Local Time) from KITR Reporting Station
Clear Clear  
Wind Chill: 50°   Ceiling: Unl
Heat Index: 50°   Visibility: 10mi
Dew Point: 39°   Wind: 9mph
Humidity: 66%   Direction: 250°WSW
Pressure: 30.09"   Gusts: NA
Location:  39.3°N, 102.42°W
Report Text: KITR 241153Z AUTO 25008KT 10SM CLR 10/04 A3009 RMK AO2 SLP157 T01000039 10144 20100 56002
Loading
Personal Weather Stations






























Interactive Weather Map New forecast layout! Learn more

10-Day Weather Forecast

Advertisements
Track Severe Weather on mobile